Time;durP1;ratioP1;P1;durP2;ratioP2;P2;SDS_P1;SDS_P2;PMS_P1;PMS_P2;Temp;Humidity;BMP_temperature;BMP_pressure;BME280_temperature;BME280_humidity;BME280_pressure;Samples;Min_cycle;Max_cycle;Signal;HPM_P1;HPM_P2
2024/03/10 00:00:47;;;;;;;;;;;19.70;48.90;;;;;;1554404;75;1936;-72
2024/03/10 00:02:49;;;;;;;;;;;19.70;48.90;;;;;;1553988;75;1108;-70
2024/03/10 00:04:50;;;;;;;;;;;19.80;49.00;;;;;;1554061;74;726;-72
2024/03/10 00:06:52;;;;;;;;;;;19.70;49.00;;;;;;1558129;75;663;-72
2024/03/10 00:08:54;;;;;;;;;;;19.80;49.00;;;;;;1549455;75;733;-73
2024/03/10 00:10:56;;;;;;;;;;;19.70;49.10;;;;;;1555243;75;660;-74
2024/03/10 00:12:58;;;;;;;;;;;19.80;49.20;;;;;;1558097;75;1129;-71
2024/03/10 00:15:00;;;;;;;;;;;19.80;49.10;;;;;;1547448;75;699;-71
2024/03/10 00:17:02;;;;;;;;;;;19.70;49.20;;;;;;1558806;75;613;-70
2024/03/10 00:19:04;;;;;;;;;;;19.80;49.30;;;;;;1551217;75;1427;-74
2024/03/10 00:21:06;;;;;;;;;;;19.70;49.20;;;;;;1545603;75;1931;-74
2024/03/10 00:23:08;;;;;;;;;;;19.80;49.30;;;;;;1556742;75;1115;-70
2024/03/10 00:25:10;;;;;;;;;;;19.80;49.40;;;;;;1556552;75;692;-71
2024/03/10 00:27:11;;;;;;;;;;;19.80;49.30;;;;;;1537685;75;636;-74
2024/03/10 00:29:13;;;;;;;;;;;19.80;49.40;;;;;;1546633;75;750;-71
2024/03/10 00:31:18;;;;;;;;;;;19.80;49.40;;;;;;1556904;75;618;-74
2024/03/10 00:33:20;;;;;;;;;;;19.80;49.50;;;;;;1544376;75;1177;-74
2024/03/10 00:35:22;;;;;;;;;;;19.80;49.50;;;;;;1546367;75;786;-71
2024/03/10 00:37:23;;;;;;;;;;;19.80;49.60;;;;;;1545798;75;722;-71
2024/03/10 00:39:25;;;;;;;;;;;19.80;49.70;;;;;;1553854;75;1935;-71
2024/03/10 00:41:27;;;;;;;;;;;19.80;49.70;;;;;;1558262;75;785;-71
2024/03/10 00:43:29;;;;;;;;;;;19.80;49.80;;;;;;1553130;75;1111;-76
2024/03/10 00:45:31;;;;;;;;;;;19.80;49.90;;;;;;1554754;75;788;-72
2024/03/10 00:47:33;;;;;;;;;;;19.80;49.90;;;;;;1548516;75;721;-72
2024/03/10 00:49:35;;;;;;;;;;;19.80;50.00;;;;;;1547582;76;720;-72
2024/03/10 00:51:37;;;;;;;;;;;19.80;50.00;;;;;;1551814;75;1125;-72
2024/03/10 00:53:39;;;;;;;;;;;19.80;50.10;;;;;;1547388;75;777;-72
2024/03/10 00:55:42;;;;;;;;;;;19.80;50.10;;;;;;1547443;75;702;-70
2024/03/10 00:57:45;;;;;;;;;;;19.80;50.20;;;;;;1553205;75;749;-72
2024/03/10 00:59:47;;;;;;;;;;;19.80;50.20;;;;;;1552969;75;1920;-70
2024/03/10 01:01:49;;;;;;;;;;;19.90;50.40;;;;;;1559698;75;1159;-70
2024/03/10 01:03:51;;;;;;;;;;;19.90;50.50;;;;;;1548592;75;903;-72
2024/03/10 01:05:53;;;;;;;;;;;19.80;50.30;;;;;;1556837;74;753;-74
2024/03/10 01:07:55;;;;;;;;;;;19.90;50.40;;;;;;1549308;75;676;-71
2024/03/10 01:09:56;;;;;;;;;;;19.90;50.50;;;;;;1561181;75;730;-72
2024/03/10 01:11:59;;;;;;;;;;;19.90;50.50;;;;;;1539953;75;1124;-74
2024/03/10 01:14:01;;;;;;;;;;;19.80;50.40;;;;;;1550919;75;689;-73
2024/03/10 01:16:03;;;;;;;;;;;19.80;50.40;;;;;;1551164;75;1481;-73
2024/03/10 01:18:05;;;;;;;;;;;19.90;50.50;;;;;;1548217;75;687;-73
2024/03/10 01:20:08;;;;;;;;;;;19.80;50.50;;;;;;1548163;75;1938;-72
2024/03/10 01:22:11;;;;;;;;;;;19.90;50.50;;;;;;1548755;75;1116;-72
2024/03/10 01:24:13;;;;;;;;;;;19.80;50.50;;;;;;1545374;75;746;-69
2024/03/10 01:26:15;;;;;;;;;;;19.90;50.60;;;;;;1554175;75;803;-75
2024/03/10 01:28:17;;;;;;;;;;;19.80;50.50;;;;;;1550667;74;746;-69
2024/03/10 01:30:20;;;;;;;;;;;19.80;50.50;;;;;;1548173;74;716;-70
2024/03/10 01:32:23;;;;;;;;;;;19.90;50.60;;;;;;1549006;75;1135;-71
2024/03/10 01:34:25;;;;;;;;;;;19.80;50.60;;;;;;1557679;75;647;-70
2024/03/10 01:36:27;;;;;;;;;;;19.80;50.60;;;;;;1559427;75;693;-70
2024/03/10 01:38:30;;;;;;;;;;;19.80;50.50;;;;;;1550501;75;710;-72
2024/03/10 01:40:31;;;;;;;;;;;19.90;50.70;;;;;;1546495;75;1923;-74
2024/03/10 01:42:33;;;;;;;;;;;19.90;50.80;;;;;;1547819;75;1159;-75
2024/03/10 01:44:35;;;;;;;;;;;19.80;50.70;;;;;;1554636;75;662;-71
2024/03/10 01:46:37;;;;;;;;;;;19.90;50.80;;;;;;1554300;75;726;-73
2024/03/10 01:48:40;;;;;;;;;;;19.90;50.80;;;;;;1551929;75;727;-73
2024/03/10 01:50:42;;;;;;;;;;;19.80;50.70;;;;;;1543314;75;646;-71
2024/03/10 01:52:47;;;;;;;;;;;19.80;50.70;;;;;;1553275;74;1121;-71
2024/03/10 01:54:48;;;;;;;;;;;19.90;50.70;;;;;;1556817;75;1725;-71
2024/03/10 01:56:50;;;;;;;;;;;19.90;50.70;;;;;;1551980;75;712;-72
2024/03/10 01:58:52;;;;;;;;;;;19.90;50.70;;;;;;1542476;75;726;-72
2024/03/10 02:00:54;;;;;;;;;;;19.90;50.70;;;;;;1544607;75;1945;-72
2024/03/10 02:02:57;;;;;;;;;;;19.90;50.70;;;;;;1550414;75;1155;-73
2024/03/10 02:04:59;;;;;;;;;;;19.90;50.70;;;;;;1554699;75;740;-71
2024/03/10 02:07:03;;;;;;;;;;;19.90;50.70;;;;;;1546220;75;742;-74
2024/03/10 02:09:06;;;;;;;;;;;19.90;50.70;;;;;;1541248;75;709;-74
2024/03/10 02:11:10;;;;;;;;;;;19.90;50.80;;;;;;1546428;75;1309;-75
2024/03/10 02:13:12;;;;;;;;;;;19.80;50.70;;;;;;1545537;74;1096;-71
2024/03/10 02:15:14;;;;;;;;;;;19.80;50.60;;;;;;1547331;75;719;-72
2024/03/10 02:17:16;;;;;;;;;;;19.90;50.70;;;;;;1546595;75;649;-73
2024/03/10 02:19:18;;;;;;;;;;;19.80;50.70;;;;;;1545412;75;804;-71
2024/03/10 02:21:21;;;;;;;;;;;19.80;50.70;;;;;;1555544;75;1917;-70
2024/03/10 02:23:24;;;;;;;;;;;19.90;50.90;;;;;;1545657;75;1129;-73
2024/03/10 02:25:34;;;;;;;;;;;19.80;50.80;;;;;;1550009;76;762;-72
2024/03/10 02:27:30;;;;;;;;;;;19.80;50.80;;;;;;1543339;75;1804;-72
2024/03/10 02:29:49;;;;;;;;;;;19.90;50.90;;;;;;1550801;75;709;-73
2024/03/10 02:47:54;;;;;;;;;;;19.90;51.00;;;;;;1551284;75;683;-71
2024/03/10 02:49:56;;;;;;;;;;;19.80;50.90;;;;;;1548311;75;732;-71
2024/03/10 02:51:58;;;;;;;;;;;19.90;51.00;;;;;;1543891;75;1133;-70
2024/03/10 02:54:00;;;;;;;;;;;19.90;51.00;;;;;;1546176;75;648;-71
2024/03/10 02:56:03;;;;;;;;;;;19.90;51.00;;;;;;1545692;75;718;-73
2024/03/10 02:58:05;;;;;;;;;;;19.80;50.90;;;;;;1543476;75;639;-70
2024/03/10 03:00:12;;;;;;;;;;;19.90;51.00;;;;;;1546064;75;1988;-75
2024/03/10 03:02:11;;;;;;;;;;;19.90;51.10;;;;;;1551164;75;1609;-71
2024/03/10 03:04:13;;;;;;;;;;;19.80;51.00;;;;;;1554023;75;727;-73
2024/03/10 03:06:16;;;;;;;;;;;19.90;51.00;;;;;;1547992;75;685;-75
2024/03/10 03:08:18;;;;;;;;;;;19.90;51.10;;;;;;1546767;75;1562;-75
2024/03/10 03:10:20;;;;;;;;;;;19.90;51.10;;;;;;1551080;75;646;-70
2024/03/10 03:12:21;;;;;;;;;;;19.90;51.20;;;;;;1545184;75;1128;-70
2024/03/10 03:14:23;;;;;;;;;;;19.90;51.30;;;;;;1549005;75;608;-71
2024/03/10 03:16:25;;;;;;;;;;;19.90;51.20;;;;;;1549796;75;728;-73
2024/03/10 03:18:29;;;;;;;;;;;19.90;51.20;;;;;;1553472;76;652;-71
2024/03/10 03:20:32;;;;;;;;;;;19.90;51.20;;;;;;1549094;75;1907;-75
2024/03/10 03:22:34;;;;;;;;;;;19.90;51.30;;;;;;1557489;75;1153;-69
2024/03/10 03:24:36;;;;;;;;;;;19.90;51.30;;;;;;1553206;75;667;-70
2024/03/10 03:26:38;;;;;;;;;;;19.90;51.30;;;;;;1547820;75;649;-71
2024/03/10 03:28:40;;;;;;;;;;;19.90;51.30;;;;;;1551879;75;687;-73
2024/03/10 03:30:42;;;;;;;;;;;19.90;51.30;;;;;;1549346;75;720;-71
2024/03/10 03:32:44;;;;;;;;;;;19.90;51.30;;;;;;1546566;75;1158;-73
2024/03/10 03:34:47;;;;;;;;;;;19.90;51.30;;;;;;1543532;75;654;-71
2024/03/10 03:36:49;;;;;;;;;;;19.90;51.40;;;;;;1548138;76;800;-69
2024/03/10 03:38:51;;;;;;;;;;;19.90;51.30;;;;;;1498345;78;713;-70
2024/03/10 03:40:53;;;;;;;;;;;19.90;51.40;;;;;;1490083;78;1943;-72
2024/03/10 03:42:55;;;;;;;;;;;19.90;51.40;;;;;;1492933;77;1162;-74
2024/03/10 03:44:57;;;;;;;;;;;19.90;51.40;;;;;;1498401;78;770;-71
2024/03/10 03:46:59;;;;;;;;;;;19.90;51.40;;;;;;1542168;75;760;-72
2024/03/10 03:49:00;;;;;;;;;;;19.90;51.30;;;;;;1551854;76;737;-70
2024/03/10 03:51:02;;;;;;;;;;;19.90;51.40;;;;;;1554142;75;699;-71
2024/03/10 03:53:04;;;;;;;;;;;19.90;51.40;;;;;;1555693;75;1099;-74
2024/03/10 03:55:06;;;;;;;;;;;19.90;51.50;;;;;;1554177;75;703;-72
2024/03/10 03:57:08;;;;;;;;;;;19.90;51.50;;;;;;1556235;75;684;-70
2024/03/10 03:59:10;;;;;;;;;;;19.90;51.50;;;;;;1556765;75;636;-75
2024/03/10 04:01:12;;;;;;;;;;;19.90;51.50;;;;;;1551566;75;1914;-72
2024/03/10 04:03:14;;;;;;;;;;;19.90;51.60;;;;;;1557964;75;1493;-72
2024/03/10 04:05:17;;;;;;;;;;;19.90;51.50;;;;;;1551413;75;728;-75
2024/03/10 04:07:19;;;;;;;;;;;19.90;51.50;;;;;;1546814;75;750;-70
2024/03/10 04:09:21;;;;;;;;;;;19.90;51.60;;;;;;1546793;75;736;-73
2024/03/10 04:11:23;;;;;;;;;;;19.80;51.60;;;;;;1560025;75;773;-75
2024/03/10 04:13:25;;;;;;;;;;;19.90;51.70;;;;;;1546373;75;1163;-71
2024/03/10 04:15:28;;;;;;;;;;;19.90;51.60;;;;;;1556423;75;757;-71
2024/03/10 04:17:31;;;;;;;;;;;19.80;51.50;;;;;;1552101;75;752;-72
2024/03/10 04:19:33;;;;;;;;;;;19.90;51.70;;;;;;1559084;75;729;-71
2024/03/10 04:21:35;;;;;;;;;;;19.90;51.60;;;;;;1539206;76;1944;-71
2024/03/10 04:23:37;;;;;;;;;;;19.90;51.70;;;;;;1553420;75;756;-73
2024/03/10 04:25:39;;;;;;;;;;;19.90;51.70;;;;;;1551115;75;759;-73
2024/03/10 04:27:42;;;;;;;;;;;19.90;51.70;;;;;;1545148;76;656;-70
2024/03/10 04:29:45;;;;;;;;;;;19.90;51.70;;;;;;1549890;76;748;-70
2024/03/10 04:31:48;;;;;;;;;;;19.90;51.60;;;;;;1549895;75;1122;-69
2024/03/10 04:33:51;;;;;;;;;;;19.90;51.80;;;;;;1557509;75;652;-69
2024/03/10 04:35:53;;;;;;;;;;;19.90;51.70;;;;;;1553211;75;705;-73
2024/03/10 04:37:55;;;;;;;;;;;19.90;51.80;;;;;;1549801;76;720;-71
2024/03/10 04:39:57;;;;;;;;;;;19.90;51.80;;;;;;1542141;75;633;-70
2024/03/10 04:41:59;;;;;;;;;;;19.90;51.80;;;;;;1551169;75;1947;-70
2024/03/10 04:44:02;;;;;;;;;;;19.90;51.80;;;;;;1556205;75;766;-70
2024/03/10 04:46:04;;;;;;;;;;;19.90;51.80;;;;;;1546144;75;708;-69
2024/03/10 04:48:08;;;;;;;;;;;19.90;51.80;;;;;;1543237;75;720;-70
2024/03/10 04:50:09;;;;;;;;;;;19.90;51.80;;;;;;1491254;78;722;-73
2024/03/10 04:52:11;;;;;;;;;;;19.90;51.90;;;;;;1499772;79;1152;-73
2024/03/10 04:54:13;;;;;;;;;;;19.90;51.80;;;;;;1492394;79;741;-72
2024/03/10 04:56:15;;;;;;;;;;;19.90;51.90;;;;;;1494510;79;796;-72
2024/03/10 04:58:17;;;;;;;;;;;19.90;51.90;;;;;;1497227;79;847;-71
2024/03/10 05:00:19;;;;;;;;;;;19.90;51.90;;;;;;1496519;78;1522;-71
2024/03/10 05:02:21;;;;;;;;;;;19.90;51.90;;;;;;1496469;78;1942;-73
2024/03/10 05:04:23;;;;;;;;;;;19.90;51.80;;;;;;1513731;77;676;-72
2024/03/10 05:06:25;;;;;;;;;;;19.90;51.90;;;;;;1493050;79;691;-74
2024/03/10 05:08:27;;;;;;;;;;;20.00;51.80;;;;;;1498788;79;725;-71
2024/03/10 05:10:29;;;;;;;;;;;19.90;51.90;;;;;;1496695;79;738;-72
2024/03/10 05:12:31;;;;;;;;;;;19.80;51.80;;;;;;1495358;78;1129;-74
2024/03/10 05:14:33;;;;;;;;;;;19.90;52.00;;;;;;1499146;79;725;-70
2024/03/10 05:16:35;;;;;;;;;;;19.90;51.90;;;;;;1495210;79;659;-69
2024/03/10 05:18:37;;;;;;;;;;;19.80;51.90;;;;;;1494209;78;698;-70
2024/03/10 05:20:39;;;;;;;;;;;19.90;52.00;;;;;;1495545;78;690;-69
2024/03/10 05:22:40;;;;;;;;;;;19.90;52.10;;;;;;1490048;79;1942;-71
2024/03/10 05:24:45;;;;;;;;;;;19.90;52.00;;;;;;1488543;79;645;-74
2024/03/10 05:26:47;;;;;;;;;;;19.90;52.10;;;;;;1492738;79;657;-73
2024/03/10 05:28:49;;;;;;;;;;;19.90;52.10;;;;;;1489361;79;733;-70
2024/03/10 05:30:52;;;;;;;;;;;19.90;52.10;;;;;;1500720;78;821;-72
2024/03/10 05:32:54;;;;;;;;;;;19.90;52.10;;;;;;1493352;79;1104;-71
2024/03/10 05:34:56;;;;;;;;;;;19.90;52.10;;;;;;1495417;79;769;-72
2024/03/10 05:37:03;;;;;;;;;;;19.90;52.00;;;;;;1500193;78;634;-72
2024/03/10 05:39:02;;;;;;;;;;;19.90;52.10;;;;;;1503135;78;1592;-74
2024/03/10 05:41:04;;;;;;;;;;;19.90;52.10;;;;;;1488124;78;606;-71
2024/03/10 05:43:06;;;;;;;;;;;19.90;52.10;;;;;;1498003;78;1181;-73
2024/03/10 05:45:09;;;;;;;;;;;19.90;52.10;;;;;;1499519;78;727;-72
2024/03/10 05:47:11;;;;;;;;;;;19.90;52.20;;;;;;1498650;78;765;-73
2024/03/10 05:49:13;;;;;;;;;;;19.90;52.20;;;;;;1503979;78;660;-71
2024/03/10 05:51:15;;;;;;;;;;;19.90;52.20;;;;;;1502219;78;873;-71
2024/03/10 05:53:17;;;;;;;;;;;19.90;52.20;;;;;;1503937;78;1138;-70
2024/03/10 05:55:20;;;;;;;;;;;19.90;52.10;;;;;;1507441;78;735;-73
2024/03/10 05:57:22;;;;;;;;;;;19.90;52.20;;;;;;1502004;78;1574;-74
2024/03/10 05:59:24;;;;;;;;;;;19.90;52.30;;;;;;1502178;78;762;-73
2024/03/10 06:01:26;;;;;;;;;;;19.90;52.30;;;;;;1503324;78;1930;-70
2024/03/10 06:03:28;;;;;;;;;;;19.90;52.30;;;;;;1501727;78;1140;-72
2024/03/10 06:05:30;;;;;;;;;;;19.90;52.20;;;;;;1503926;78;702;-71
2024/03/10 06:07:32;;;;;;;;;;;19.90;52.30;;;;;;1506919;78;818;-70
2024/03/10 06:09:37;;;;;;;;;;;19.90;52.30;;;;;;1497867;78;755;-72
2024/03/10 06:11:38;;;;;;;;;;;19.90;52.50;;;;;;1496495;77;1163;-70
2024/03/10 06:13:40;;;;;;;;;;;19.90;52.30;;;;;;1506990;78;693;-71
2024/03/10 06:15:42;;;;;;;;;;;19.90;52.30;;;;;;1505892;78;706;-73
2024/03/10 06:18:02;;;;;;;;;;;19.90;52.30;;;;;;1508473;78;792;-73
2024/03/10 06:26:47;;;;;;;;;;;19.90;52.40;;;;;;1506572;78;1649;-71
2024/03/10 06:28:49;;;;;;;;;;;20.00;52.40;;;;;;1506590;78;710;-72
2024/03/10 06:30:51;;;;;;;;;;;19.90;52.50;;;;;;1507323;78;843;-71
2024/03/10 06:32:53;;;;;;;;;;;19.90;52.60;;;;;;1511249;78;1139;-72
2024/03/10 06:34:57;;;;;;;;;;;19.90;52.50;;;;;;1504430;78;675;-72
2024/03/10 06:36:59;;;;;;;;;;;19.90;52.60;;;;;;1504831;78;654;-71
2024/03/10 06:39:01;;;;;;;;;;;19.90;52.60;;;;;;1503627;78;729;-71
2024/03/10 06:41:03;;;;;;;;;;;19.90;52.60;;;;;;1509009;78;731;-75
2024/03/10 06:43:05;;;;;;;;;;;19.90;52.60;;;;;;1507663;78;1950;-71
2024/03/10 06:45:08;;;;;;;;;;;19.90;52.60;;;;;;1504201;78;689;-71
2024/03/10 06:47:10;;;;;;;;;;;20.00;52.60;;;;;;1506143;78;783;-73
2024/03/10 06:49:14;;;;;;;;;;;19.90;52.70;;;;;;1498404;78;796;-75
2024/03/10 06:51:15;;;;;;;;;;;20.00;52.60;;;;;;1502410;78;1756;-73
2024/03/10 06:53:17;;;;;;;;;;;19.90;52.70;;;;;;1506665;78;1550;-74
2024/03/10 06:55:19;;;;;;;;;;;19.90;52.70;;;;;;1500010;78;730;-71
2024/03/10 06:57:21;;;;;;;;;;;20.00;52.80;;;;;;1500796;78;737;-71
2024/03/10 06:59:25;;;;;;;;;;;20.00;52.70;;;;;;1504160;78;717;-71
2024/03/10 07:01:26;;;;;;;;;;;19.90;52.70;;;;;;1501697;78;1991;-71
2024/03/10 07:03:28;;;;;;;;;;;20.00;52.80;;;;;;1511549;78;1944;-71
2024/03/10 07:05:30;;;;;;;;;;;20.00;52.80;;;;;;1504653;78;703;-71
2024/03/10 07:07:32;;;;;;;;;;;19.90;52.80;;;;;;1506229;78;795;-77
2024/03/10 07:09:35;;;;;;;;;;;19.90;52.80;;;;;;1503514;78;696;-71
2024/03/10 07:11:39;;;;;;;;;;;19.90;52.80;;;;;;1508209;78;597;-72
2024/03/10 07:13:41;;;;;;;;;;;19.90;52.80;;;;;;1502423;78;785;-73
2024/03/10 07:15:43;;;;;;;;;;;19.90;52.80;;;;;;1500723;78;716;-71
2024/03/10 07:17:45;;;;;;;;;;;19.90;52.80;;;;;;1506157;78;795;-71
2024/03/10 07:19:47;;;;;;;;;;;19.90;52.80;;;;;;1511100;78;779;-72
2024/03/10 07:21:50;;;;;;;;;;;19.90;52.80;;;;;;1505623;78;1965;-70
2024/03/10 07:23:51;;;;;;;;;;;19.90;52.80;;;;;;1506029;78;729;-73
2024/03/10 07:25:53;;;;;;;;;;;20.00;52.80;;;;;;1505947;78;812;-71
2024/03/10 07:27:55;;;;;;;;;;;19.90;52.80;;;;;;1505257;78;933;-76
2024/03/10 07:29:58;;;;;;;;;;;19.90;52.90;;;;;;1505423;78;670;-71
2024/03/10 07:32:00;;;;;;;;;;;19.90;52.80;;;;;;1505190;78;1170;-72
2024/03/10 07:34:03;;;;;;;;;;;20.00;52.80;;;;;;1499253;78;817;-71
2024/03/10 07:36:05;;;;;;;;;;;19.90;52.90;;;;;;1506212;78;673;-72
2024/03/10 07:38:07;;;;;;;;;;;19.90;52.80;;;;;;1508222;78;784;-69
2024/03/10 07:40:16;;;;;;;;;;;19.90;52.90;;;;;;1503276;78;735;-70
2024/03/10 07:42:18;;;;;;;;;;;19.90;52.90;;;;;;1507003;78;2290;-69
2024/03/10 07:44:20;;;;;;;;;;;19.90;53.10;;;;;;1502888;78;693;-79
2024/03/10 07:46:22;;;;;;;;;;;19.90;52.90;;;;;;1502334;78;798;-73
2024/03/10 07:48:24;;;;;;;;;;;20.00;52.80;;;;;;1506392;78;1534;-76
2024/03/10 07:50:26;;;;;;;;;;;20.00;52.70;;;;;;1505805;78;922;-71
2024/03/10 07:52:28;;;;;;;;;;;20.00;52.70;;;;;;1508549;78;1203;-68
2024/03/10 07:54:30;;;;;;;;;;;19.90;52.60;;;;;;1503982;78;730;-73
2024/03/10 07:56:32;;;;;;;;;;;20.00;52.60;;;;;;1499187;78;736;-73
2024/03/10 07:58:34;;;;;;;;;;;20.00;52.30;;;;;;1499395;78;724;-72
2024/03/10 08:00:36;;;;;;;;;;;19.90;51.30;;;;;;1498973;78;732;-73
2024/03/10 08:02:41;;;;;;;;;;;20.00;50.70;;;;;;1507116;78;1944;-75
2024/03/10 08:04:43;;;;;;;;;;;19.90;49.10;;;;;;1499705;78;764;-70
2024/03/10 08:06:45;;;;;;;;;;;19.80;49.00;;;;;;1502686;78;678;-72
2024/03/10 08:08:46;;;;;;;;;;;19.70;48.90;;;;;;1503891;78;726;-70
2024/03/10 08:10:48;;;;;;;;;;;19.80;48.10;;;;;;1506860;78;700;-72
2024/03/10 08:12:51;;;;;;;;;;;19.70;47.70;;;;;;1507614;78;1122;-73
2024/03/10 08:14:54;;;;;;;;;;;19.70;47.00;;;;;;1505691;78;663;-70
2024/03/10 08:16:57;;;;;;;;;;;19.70;46.30;;;;;;1503363;78;766;-71
2024/03/10 08:18:59;;;;;;;;;;;19.60;45.80;;;;;;1513139;78;633;-70
2024/03/10 08:21:01;;;;;;;;;;;19.60;45.70;;;;;;1510081;78;764;-70
2024/03/10 08:23:04;;;;;;;;;;;19.50;46.20;;;;;;1501168;78;1943;-69
2024/03/10 08:25:06;;;;;;;;;;;19.50;45.30;;;;;;1495901;78;693;-71
2024/03/10 08:27:11;;;;;;;;;;;19.50;45.60;;;;;;1500699;78;715;-71
2024/03/10 08:29:12;;;;;;;;;;;19.50;45.80;;;;;;1505836;78;1500;-69
2024/03/10 08:31:14;;;;;;;;;;;19.50;45.70;;;;;;1505075;78;797;-70
2024/03/10 08:33:16;;;;;;;;;;;19.50;45.80;;;;;;1492220;78;1231;-73
2024/03/10 08:35:20;;;;;;;;;;;19.50;45.80;;;;;;1501005;78;773;-73
2024/03/10 08:37:21;;;;;;;;;;;19.50;45.70;;;;;;1500309;78;1698;-70
2024/03/10 08:39:24;;;;;;;;;;;19.50;45.40;;;;;;1502523;78;752;-69
2024/03/10 08:41:26;;;;;;;;;;;19.40;44.60;;;;;;1506822;78;771;-73
2024/03/10 08:43:28;;;;;;;;;;;19.50;44.40;;;;;;1498449;78;1945;-71
2024/03/10 08:45:31;;;;;;;;;;;19.40;44.60;;;;;;1508499;78;1563;-70
2024/03/10 08:47:33;;;;;;;;;;;19.50;44.20;;;;;;1512380;78;631;-70
2024/03/10 08:49:35;;;;;;;;;;;19.50;43.10;;;;;;1508309;78;786;-70
2024/03/10 08:51:37;;;;;;;;;;;19.40;43.20;;;;;;1503580;78;676;-70
2024/03/10 08:53:40;;;;;;;;;;;19.40;43.10;;;;;;1503324;78;680;-72
2024/03/10 08:55:44;;;;;;;;;;;19.40;43.40;;;;;;1497808;78;625;-71
2024/03/10 08:57:47;;;;;;;;;;;19.40;41.90;;;;;;1500743;78;990;-69
2024/03/10 08:59:49;;;;;;;;;;;19.50;43.20;;;;;;1502908;78;726;-69
2024/03/10 09:01:51;;;;;;;;;;;19.40;43.10;;;;;;1501947;78;1162;-70
2024/03/10 09:03:55;;;;;;;;;;;19.50;43.30;;;;;;1503875;78;1922;-70
2024/03/10 09:05:56;;;;;;;;;;;19.50;43.30;;;;;;1506185;78;1608;-69
2024/03/10 09:07:58;;;;;;;;;;;19.40;43.30;;;;;;1498288;78;731;-70
2024/03/10 09:10:00;;;;;;;;;;;19.50;43.10;;;;;;1500786;78;694;-71
2024/03/10 09:12:02;;;;;;;;;;;19.40;42.90;;;;;;1505567;78;1150;-72
2024/03/10 09:14:04;;;;;;;;;;;19.40;42.80;;;;;;1503931;78;705;-69
2024/03/10 09:16:08;;;;;;;;;;;19.40;42.70;;;;;;1504765;78;745;-70
2024/03/10 09:18:09;;;;;;;;;;;19.40;42.50;;;;;;1502051;78;1174;-72
2024/03/10 09:20:12;;;;;;;;;;;19.40;42.70;;;;;;1505364;78;716;-73
2024/03/10 09:22:15;;;;;;;;;;;19.40;42.70;;;;;;1502012;78;1165;-73
2024/03/10 09:24:17;;;;;;;;;;;19.40;42.40;;;;;;1500266;78;1925;-72
2024/03/10 09:26:20;;;;;;;;;;;19.40;42.60;;;;;;1495613;78;750;-70
2024/03/10 09:28:22;;;;;;;;;;;19.40;42.60;;;;;;1499817;78;689;-70
2024/03/10 09:30:24;;;;;;;;;;;19.40;42.50;;;;;;1503528;78;711;-70
2024/03/10 09:32:27;;;;;;;;;;;19.40;42.30;;;;;;1495982;78;1185;-71
2024/03/10 09:34:28;;;;;;;;;;;19.40;42.50;;;;;;1506982;78;782;-70
2024/03/10 09:36:30;;;;;;;;;;;19.40;42.60;;;;;;1506049;78;716;-71
2024/03/10 09:38:33;;;;;;;;;;;19.40;42.60;;;;;;1499175;78;725;-79
2024/03/10 09:40:35;;;;;;;;;;;19.40;42.50;;;;;;1489674;78;767;-72
2024/03/10 09:42:37;;;;;;;;;;;19.40;42.70;;;;;;1498397;78;1945;-76
2024/03/10 09:44:39;;;;;;;;;;;19.40;42.80;;;;;;1553690;74;969;-75
2024/03/10 09:46:43;;;;;;;;;;;19.40;42.90;;;;;;1549280;74;813;-75
2024/03/10 09:48:45;;;;;;;;;;;19.40;43.10;;;;;;1557265;75;643;-73
2024/03/10 09:50:49;;;;;;;;;;;19.40;43.10;;;;;;1556128;75;734;-75
2024/03/10 09:52:55;;;;;;;;;;;19.50;43.40;;;;;;1556265;75;1112;-75
2024/03/10 09:54:57;;;;;;;;;;;19.50;43.60;;;;;;1552667;75;637;-77
2024/03/10 09:56:59;;;;;;;;;;;19.60;43.70;;;;;;1556733;75;844;-75
2024/03/10 09:59:03;;;;;;;;;;;19.50;43.80;;;;;;1551590;75;806;-75
2024/03/10 10:01:11;;;;;;;;;;;19.50;44.00;;;;;;1556297;75;732;-77
2024/03/10 10:03:09;;;;;;;;;;;19.50;44.00;;;;;;1566450;75;1921;-78
2024/03/10 10:05:16;;;;;;;;;;;19.60;44.20;;;;;;1558946;75;805;-74
2024/03/10 10:07:18;;;;;;;;;;;19.60;44.30;;;;;;1554656;75;1796;-73
2024/03/10 10:09:26;;;;;;;;;;;19.60;44.40;;;;;;1557008;75;814;-76
2024/03/10 10:11:23;;;;;;;;;;;19.60;44.50;;;;;;1548000;75;1651;-73
2024/03/10 10:13:29;;;;;;;;;;;19.60;44.60;;;;;;1543575;75;1079;-73
2024/03/10 10:15:34;;;;;;;;;;;19.70;44.80;;;;;;1548940;75;665;-75
2024/03/10 10:17:36;;;;;;;;;;;19.60;44.70;;;;;;1555686;75;709;-75
2024/03/10 10:19:38;;;;;;;;;;;19.70;45.00;;;;;;1540936;75;693;-73
2024/03/10 10:21:39;;;;;;;;;;;19.70;45.10;;;;;;1521476;76;1366;-72
2024/03/10 10:23:43;;;;;;;;;;;19.70;45.20;;;;;;1555576;75;1946;-74
2024/03/10 10:25:45;;;;;;;;;;;19.70;45.20;;;;;;1556601;75;759;-75
2024/03/10 10:27:47;;;;;;;;;;;19.70;45.30;;;;;;1554968;75;706;-72
2024/03/10 10:29:50;;;;;;;;;;;19.70;45.40;;;;;;1551098;75;605;-73
2024/03/10 10:31:54;;;;;;;;;;;19.70;45.50;;;;;;1555318;76;1121;-74
2024/03/10 10:33:56;;;;;;;;;;;19.70;45.60;;;;;;1548611;75;941;-74
2024/03/10 10:35:58;;;;;;;;;;;19.70;45.60;;;;;;1554541;75;1113;-74
2024/03/10 10:38:04;;;;;;;;;;;19.80;45.70;;;;;;1561093;75;1515;-75
2024/03/10 10:40:11;;;;;;;;;;;19.80;45.70;;;;;;1557097;75;1956;-74
2024/03/10 10:42:09;;;;;;;;;;;19.80;45.80;;;;;;1503178;78;1564;-76
2024/03/10 10:44:11;;;;;;;;;;;19.80;45.80;;;;;;1493998;79;1939;-74
2024/03/10 10:46:14;;;;;;;;;;;19.80;45.90;;;;;;1492334;79;685;-75
2024/03/10 10:48:19;;;;;;;;;;;19.80;46.00;;;;;;1500006;78;698;-74
2024/03/10 10:50:31;;;;;;;;;;;19.80;46.10;;;;;;1492734;79;719;-75
2024/03/10 10:52:27;;;;;;;;;;;19.80;46.10;;;;;;1497039;78;1734;-74
2024/03/10 10:54:29;;;;;;;;;;;19.80;46.10;;;;;;1494952;79;760;-76
2024/03/10 10:56:32;;;;;;;;;;;19.80;46.20;;;;;;1497976;79;786;-73
2024/03/10 10:58:34;;;;;;;;;;;19.90;46.40;;;;;;1506129;78;811;-72
2024/03/10 11:00:39;;;;;;;;;;;19.80;46.30;;;;;;1497798;79;684;-74
2024/03/10 11:02:42;;;;;;;;;;;19.80;46.40;;;;;;1501529;78;1718;-77
2024/03/10 11:04:44;;;;;;;;;;;19.80;46.40;;;;;;1504301;79;1945;-75
2024/03/10 11:06:46;;;;;;;;;;;19.80;46.50;;;;;;1490550;79;676;-75
2024/03/10 11:08:49;;;;;;;;;;;19.90;46.70;;;;;;1495798;79;785;-75
2024/03/10 11:10:52;;;;;;;;;;;19.90;46.70;;;;;;1494705;79;832;-72
2024/03/10 11:13:09;;;;;;;;;;;19.80;46.60;;;;;;1491027;79;1189;-74
2024/03/10 11:15:15;;;;;;;;;;;19.80;46.60;;;;;;1495624;79;679;-74
2024/03/10 11:17:16;;;;;;;;;;;19.80;46.80;;;;;;1496431;79;1619;-76
2024/03/10 11:19:21;;;;;;;;;;;19.90;46.90;;;;;;1508518;79;804;-73
2024/03/10 11:21:22;;;;;;;;;;;19.80;46.80;;;;;;1499205;79;731;-73
2024/03/10 11:23:26;;;;;;;;;;;19.90;46.90;;;;;;1502701;79;1945;-73
2024/03/10 11:25:28;;;;;;;;;;;19.90;46.90;;;;;;1488791;79;712;-72
2024/03/10 11:27:31;;;;;;;;;;;19.90;47.00;;;;;;1480245;78;1137;-71
2024/03/10 11:29:33;;;;;;;;;;;19.90;47.40;;;;;;1547359;75;680;-73
2024/03/10 11:31:37;;;;;;;;;;;19.90;47.30;;;;;;1543689;75;731;-72
2024/03/10 11:33:40;;;;;;;;;;;19.90;47.30;;;;;;1542253;75;1457;-73
2024/03/10 11:35:42;;;;;;;;;;;19.90;47.30;;;;;;1544725;75;852;-77
2024/03/10 11:37:45;;;;;;;;;;;20.00;47.30;;;;;;1546187;75;724;-74
2024/03/10 11:39:47;;;;;;;;;;;19.90;47.30;;;;;;1544522;75;740;-74
2024/03/10 11:41:49;;;;;;;;;;;19.90;47.30;;;;;;1545625;75;1181;-74
2024/03/10 11:43:51;;;;;;;;;;;19.90;47.30;;;;;;1551450;75;1930;-77
2024/03/10 11:45:54;;;;;;;;;;;20.00;47.40;;;;;;1542043;75;712;-75
2024/03/10 11:47:56;;;;;;;;;;;20.00;47.30;;;;;;1544347;75;740;-73
2024/03/10 11:49:59;;;;;;;;;;;20.00;47.30;;;;;;1545376;75;923;-74
2024/03/10 11:52:02;;;;;;;;;;;19.90;47.40;;;;;;1544799;75;1197;-74
2024/03/10 11:54:07;;;;;;;;;;;19.90;47.20;;;;;;1543482;75;1989;-72
2024/03/10 11:56:08;;;;;;;;;;;19.90;47.30;;;;;;1545277;75;1631;-75
2024/03/10 11:58:10;;;;;;;;;;;20.00;47.30;;;;;;1544667;75;842;-72
2024/03/10 12:00:21;;;;;;;;;;;19.90;47.40;;;;;;1544279;75;727;-73
2024/03/10 12:02:17;;;;;;;;;;;19.90;47.40;;;;;;1544568;75;1579;-72
2024/03/10 12:04:19;;;;;;;;;;;19.90;47.40;;;;;;1547637;75;1913;-73
2024/03/10 12:06:23;;;;;;;;;;;19.90;47.40;;;;;;1541966;75;824;-73
2024/03/10 12:08:28;;;;;;;;;;;20.00;47.50;;;;;;1543821;75;705;-72
2024/03/10 12:10:32;;;;;;;;;;;19.90;47.60;;;;;;1541044;76;786;-75
2024/03/10 12:12:33;;;;;;;;;;;19.90;47.60;;;;;;1549372;75;1174;-74
2024/03/10 12:14:39;;;;;;;;;;;19.90;47.60;;;;;;1541053;75;722;-76
2024/03/10 12:16:47;;;;;;;;;;;19.90;47.70;;;;;;1537393;75;753;-76
2024/03/10 12:18:45;;;;;;;;;;;20.00;47.70;;;;;;1543800;75;1117;-74
2024/03/10 12:20:46;;;;;;;;;;;20.00;47.60;;;;;;1496602;78;713;-76
2024/03/10 12:22:48;;;;;;;;;;;20.00;47.70;;;;;;1497806;78;1212;-78
2024/03/10 12:24:52;;;;;;;;;;;20.00;47.70;;;;;;1495521;78;1918;-75
2024/03/10 12:26:54;;;;;;;;;;;20.00;47.60;;;;;;1496054;79;1398;-76
2024/03/10 12:28:56;;;;;;;;;;;20.00;47.70;;;;;;1501240;79;759;-77
2024/03/10 12:31:01;;;;;;;;;;;20.00;47.60;;;;;;1499287;78;1579;-76
2024/03/10 12:33:08;;;;;;;;;;;20.00;47.70;;;;;;1497256;79;1197;-75